sensor_id;sensor_type;location;lat;lon;timestamp;temperature;humidity
67893;DHT22;54688;52.376;16.744;2022-09-12T00:00:08;11.3;83
67893;DHT22;54688;52.376;16.744;2022-09-12T00:04:00;11.3;82.9
67893;DHT22;54688;52.376;16.744;2022-09-12T00:07:03;11.3;82.7
67893;DHT22;54688;52.376;16.744;2022-09-12T00:10:05;11.3;82.6
67893;DHT22;54688;52.376;16.744;2022-09-12T00:13:08;11.3;82.5
67893;DHT22;54688;52.376;16.744;2022-09-12T00:16:14;11.3;82.5
67893;DHT22;54688;52.376;16.744;2022-09-12T00:19:17;11.3;82.6
67893;DHT22;54688;52.376;16.744;2022-09-12T00:22:19;11.3;82.6
67893;DHT22;54688;52.376;16.744;2022-09-12T00:25:21;11.2;82.8
67893;DHT22;54688;52.376;16.744;2022-09-12T00:28:22;11.1;82.9
67893;DHT22;54688;52.376;16.744;2022-09-12T00:31:25;11;83
67893;DHT22;54688;52.376;16.744;2022-09-12T00:34:27;11;83.2
67893;DHT22;54688;52.376;16.744;2022-09-12T00:37:30;10.9;83.4
67893;DHT22;54688;52.376;16.744;2022-09-12T00:40:31;10.9;83.5
67893;DHT22;54688;52.376;16.744;2022-09-12T00:43:36;10.8;83.6
67893;DHT22;54688;52.376;16.744;2022-09-12T00:46:40;10.8;83.9
67893;DHT22;54688;52.376;16.744;2022-09-12T00:49:47;10.7;84.2
67893;DHT22;54688;52.376;16.744;2022-09-12T00:52:52;10.7;84.4
67893;DHT22;54688;52.376;16.744;2022-09-12T00:55:58;10.7;84.7
67893;DHT22;54688;52.376;16.744;2022-09-12T01:01:59;10.6;85
67893;DHT22;54688;52.376;16.744;2022-09-12T01:05:02;10.6;85
67893;DHT22;54688;52.376;16.744;2022-09-12T01:08:07;10.5;85.4
67893;DHT22;54688;52.376;16.744;2022-09-12T01:11:09;10.5;85.9
67893;DHT22;54688;52.376;16.744;2022-09-12T01:14:12;10.5;86
67893;DHT22;54688;52.376;16.744;2022-09-12T01:17:15;10.5;85.4
67893;DHT22;54688;52.376;16.744;2022-09-12T01:20:21;10.5;86.1
67893;DHT22;54688;52.376;16.744;2022-09-12T01:24:41;10.5;86.3
67893;DHT22;54688;52.376;16.744;2022-09-12T01:27:58;10.5;86.8
67893;DHT22;54688;52.376;16.744;2022-09-12T01:31:10;10.5;86.9
67893;DHT22;54688;52.376;16.744;2022-09-12T01:34:17;10.5;86.9
67893;DHT22;54688;52.376;16.744;2022-09-12T01:37:25;10.5;87
67893;DHT22;54688;52.376;16.744;2022-09-12T01:40:32;10.6;87
67893;DHT22;54688;52.376;16.744;2022-09-12T01:43:44;10.6;86.9
67893;DHT22;54688;52.376;16.744;2022-09-12T01:46:51;10.6;87.2
67893;DHT22;54688;52.376;16.744;2022-09-12T01:49:56;10.6;87.1
67893;DHT22;54688;52.376;16.744;2022-09-12T01:53:03;10.6;86.9
67893;DHT22;54688;52.376;16.744;2022-09-12T01:56:10;10.6;87.3
67893;DHT22;54688;52.376;16.744;2022-09-12T01:59:17;10.5;86.8
67893;DHT22;54688;52.376;16.744;2022-09-12T02:02:24;10.5;86.7
67893;DHT22;54688;52.376;16.744;2022-09-12T02:05:32;10.5;86.5
67893;DHT22;54688;52.376;16.744;2022-09-12T02:08:37;10.5;86.9
67893;DHT22;54688;52.376;16.744;2022-09-12T02:11:43;10.5;86.8
67893;DHT22;54688;52.376;16.744;2022-09-12T02:14:48;10.4;86.7
67893;DHT22;54688;52.376;16.744;2022-09-12T02:17:55;10.3;86.9
67893;DHT22;54688;52.376;16.744;2022-09-12T02:20:58;10.3;87
67893;DHT22;54688;52.376;16.744;2022-09-12T02:24:03;10.3;87.1
67893;DHT22;54688;52.376;16.744;2022-09-12T02:27:09;10.3;87.3
67893;DHT22;54688;52.376;16.744;2022-09-12T02:30:16;10.3;87.8
67893;DHT22;54688;52.376;16.744;2022-09-12T02:33:19;10.3;87.6
67893;DHT22;54688;52.376;16.744;2022-09-12T02:36:31;10.3;87.7
67893;DHT22;54688;52.376;16.744;2022-09-12T02:39:38;10.3;87.5
67893;DHT22;54688;52.376;16.744;2022-09-12T02:42:40;10.2;87.5
67893;DHT22;54688;52.376;16.744;2022-09-12T02:45:44;10.2;87.5
67893;DHT22;54688;52.376;16.744;2022-09-12T02:48:45;10.2;87.6
67893;DHT22;54688;52.376;16.744;2022-09-12T02:51:48;10.2;87.5
67893;DHT22;54688;52.376;16.744;2022-09-12T02:54:50;10.2;87.8
67893;DHT22;54688;52.376;16.744;2022-09-12T02:57:53;10.2;87.6
67893;DHT22;54688;52.376;16.744;2022-09-12T03:00:55;10.2;87.7
67893;DHT22;54688;52.376;16.744;2022-09-12T03:04:11;10.1;87.5
67893;DHT22;54688;52.376;16.744;2022-09-12T03:07:32;10.1;87.7
67893;DHT22;54688;52.376;16.744;2022-09-12T03:10:49;10.1;87.9
67893;DHT22;54688;52.376;16.744;2022-09-12T03:14:10;10.1;87.9
67893;DHT22;54688;52.376;16.744;2022-09-12T03:17:23;10.1;88.1
67893;DHT22;54688;52.376;16.744;2022-09-12T03:20:38;10.1;87.9
67893;DHT22;54688;52.376;16.744;2022-09-12T03:23:48;10.1;88.1
67893;DHT22;54688;52.376;16.744;2022-09-12T03:27:01;10.1;88.1
67893;DHT22;54688;52.376;16.744;2022-09-12T03:30:08;10.1;88.1
67893;DHT22;54688;52.376;16.744;2022-09-12T03:33:11;10;88.2
67893;DHT22;54688;52.376;16.744;2022-09-12T03:36:14;10;88.2
67893;DHT22;54688;52.376;16.744;2022-09-12T03:39:21;10.1;88.3
67893;DHT22;54688;52.376;16.744;2022-09-12T03:42:23;10.1;88.5
67893;DHT22;54688;52.376;16.744;2022-09-12T03:45:25;10.1;88.6
67893;DHT22;54688;52.376;16.744;2022-09-12T03:48:29;10.1;88.7
67893;DHT22;54688;52.376;16.744;2022-09-12T03:51:30;10.2;88.8
67893;DHT22;54688;52.376;16.744;2022-09-12T03:54:33;10.2;88
67893;DHT22;54688;52.376;16.744;2022-09-12T03:57:37;10.3;88.6
67893;DHT22;54688;52.376;16.744;2022-09-12T04:00:39;10.3;88.7
67893;DHT22;54688;52.376;16.744;2022-09-12T04:03:41;10.3;88.8
67893;DHT22;54688;52.376;16.744;2022-09-12T04:06:44;10.4;88.9
67893;DHT22;54688;52.376;16.744;2022-09-12T04:09:47;10.4;89
67893;DHT22;54688;52.376;16.744;2022-09-12T04:12:48;10.5;89
67893;DHT22;54688;52.376;16.744;2022-09-12T04:15:58;10.5;89
67893;DHT22;54688;52.376;16.744;2022-09-12T04:19:00;10.6;89.2
67893;DHT22;54688;52.376;16.744;2022-09-12T04:22:03;10.6;89.2
67893;DHT22;54688;52.376;16.744;2022-09-12T04:25:05;10.7;89
67893;DHT22;54688;52.376;16.744;2022-09-12T04:28:08;10.7;88.8
67893;DHT22;54688;52.376;16.744;2022-09-12T04:31:12;10.8;88.9
67893;DHT22;54688;52.376;16.744;2022-09-12T04:34:15;10.8;88.9
67893;DHT22;54688;52.376;16.744;2022-09-12T04:37:17;10.8;88.6
67893;DHT22;54688;52.376;16.744;2022-09-12T04:40:19;10.8;88.5
67893;DHT22;54688;52.376;16.744;2022-09-12T04:43:21;10.9;88.1
67893;DHT22;54688;52.376;16.744;2022-09-12T04:46:24;10.8;88
67893;DHT22;54688;52.376;16.744;2022-09-12T04:49:28;10.8;88
67893;DHT22;54688;52.376;16.744;2022-09-12T04:52:30;10.8;88.3
67893;DHT22;54688;52.376;16.744;2022-09-12T04:55:32;10.8;88.4
67893;DHT22;54688;52.376;16.744;2022-09-12T04:58:35;10.8;88.4
67893;DHT22;54688;52.376;16.744;2022-09-12T05:01:38;10.8;88.3
67893;DHT22;54688;52.376;16.744;2022-09-12T05:07:41;10.8;88.3
67893;DHT22;54688;52.376;16.744;2022-09-12T05:10:42;10.8;88.3
67893;DHT22;54688;52.376;16.744;2022-09-12T05:13:45;10.9;88.5
67893;DHT22;54688;52.376;16.744;2022-09-12T05:16:47;11;88.8
67893;DHT22;54688;52.376;16.744;2022-09-12T05:19:49;11;88.8
67893;DHT22;54688;52.376;16.744;2022-09-12T05:22:51;11.1;88.7
67893;DHT22;54688;52.376;16.744;2022-09-12T05:25:54;11.1;88.6
67893;DHT22;54688;52.376;16.744;2022-09-12T05:28:58;11.1;88.5
67893;DHT22;54688;52.376;16.744;2022-09-12T05:32:00;11.2;88.5
67893;DHT22;54688;52.376;16.744;2022-09-12T05:35:03;11.3;88.6
67893;DHT22;54688;52.376;16.744;2022-09-12T05:38:05;11.3;88.5
67893;DHT22;54688;52.376;16.744;2022-09-12T05:41:09;11.4;88.4
67893;DHT22;54688;52.376;16.744;2022-09-12T05:44:13;11.4;88.7
67893;DHT22;54688;52.376;16.744;2022-09-12T05:47:15;11.4;88.2
67893;DHT22;54688;52.376;16.744;2022-09-12T05:50:19;11.5;88.1
67893;DHT22;54688;52.376;16.744;2022-09-12T05:53:20;11.6;88
67893;DHT22;54688;52.376;16.744;2022-09-12T05:56:23;11.6;87.6
67893;DHT22;54688;52.376;16.744;2022-09-12T05:59:27;11.7;87.6
67893;DHT22;54688;52.376;16.744;2022-09-12T06:02:29;11.7;87.4
67893;DHT22;54688;52.376;16.744;2022-09-12T06:05:31;11.7;87.3
67893;DHT22;54688;52.376;16.744;2022-09-12T06:08:33;11.7;87.2
67893;DHT22;54688;52.376;16.744;2022-09-12T06:11:36;11.7;87
67893;DHT22;54688;52.376;16.744;2022-09-12T06:14:40;11.8;86.9
67893;DHT22;54688;52.376;16.744;2022-09-12T06:17:42;11.8;86.9
67893;DHT22;54688;52.376;16.744;2022-09-12T06:20:44;11.8;86.8
67893;DHT22;54688;52.376;16.744;2022-09-12T06:23:46;11.8;86.7
67893;DHT22;54688;52.376;16.744;2022-09-12T06:26:49;11.9;86.9
67893;DHT22;54688;52.376;16.744;2022-09-12T06:29:51;11.9;86.6
67893;DHT22;54688;52.376;16.744;2022-09-12T06:32:53;12;86.7
67893;DHT22;54688;52.376;16.744;2022-09-12T06:35:55;12.1;86.5
67893;DHT22;54688;52.376;16.744;2022-09-12T06:39:04;12.1;86.4
67893;DHT22;54688;52.376;16.744;2022-09-12T06:42:07;12.2;86.2
67893;DHT22;54688;52.376;16.744;2022-09-12T06:45:09;12.3;85.7
67893;DHT22;54688;52.376;16.744;2022-09-12T06:48:11;12.3;85.8
67893;DHT22;54688;52.376;16.744;2022-09-12T06:51:15;12.4;85.6
67893;DHT22;54688;52.376;16.744;2022-09-12T06:54:18;12.5;85.6
67893;DHT22;54688;52.376;16.744;2022-09-12T06:57:20;12.6;85.3
67893;DHT22;54688;52.376;16.744;2022-09-12T07:00:22;12.6;84.9
67893;DHT22;54688;52.376;16.744;2022-09-12T07:03:24;12.7;84.7
67893;DHT22;54688;52.376;16.744;2022-09-12T07:06:27;12.8;84
67893;DHT22;54688;52.376;16.744;2022-09-12T07:09:31;12.8;84.1
67893;DHT22;54688;52.376;16.744;2022-09-12T07:12:33;13;83.6
67893;DHT22;54688;52.376;16.744;2022-09-12T07:15:35;13;83.5
67893;DHT22;54688;52.376;16.744;2022-09-12T07:18:37;13.1;83.5
67893;DHT22;54688;52.376;16.744;2022-09-12T07:21:41;13.2;82.9
67893;DHT22;54688;52.376;16.744;2022-09-12T07:24:42;13.3;83
67893;DHT22;54688;52.376;16.744;2022-09-12T07:27:44;13.4;82.3
67893;DHT22;54688;52.376;16.744;2022-09-12T07:30:46;13.5;81.8
67893;DHT22;54688;52.376;16.744;2022-09-12T07:33:48;13.5;81.4
67893;DHT22;54688;52.376;16.744;2022-09-12T07:36:51;13.6;80.8
67893;DHT22;54688;52.376;16.744;2022-09-12T07:39:53;13.6;80.8
67893;DHT22;54688;52.376;16.744;2022-09-12T07:42:55;13.7;80.9
67893;DHT22;54688;52.376;16.744;2022-09-12T07:45:57;13.8;80.3
67893;DHT22;54688;52.376;16.744;2022-09-12T07:48:59;13.9;80.7
67893;DHT22;54688;52.376;16.744;2022-09-12T07:52:03;14;79.7
67893;DHT22;54688;52.376;16.744;2022-09-12T07:55:05;14.2;78.5
67893;DHT22;54688;52.376;16.744;2022-09-12T07:58:08;14.2;78.2
67893;DHT22;54688;52.376;16.744;2022-09-12T08:01:11;14.3;77.3
67893;DHT22;54688;52.376;16.744;2022-09-12T08:04:14;14.5;77
67893;DHT22;54688;52.376;16.744;2022-09-12T08:07:16;14.5;76
67893;DHT22;54688;52.376;16.744;2022-09-12T08:10:18;14.6;75.4
67893;DHT22;54688;52.376;16.744;2022-09-12T08:13:20;14.7;75.1
67893;DHT22;54688;52.376;16.744;2022-09-12T08:16:23;14.8;75.5
67893;DHT22;54688;52.376;16.744;2022-09-12T08:19:26;14.9;75
67893;DHT22;54688;52.376;16.744;2022-09-12T08:22:29;15;74.1
67893;DHT22;54688;52.376;16.744;2022-09-12T08:25:31;15.1;73.4
67893;DHT22;54688;52.376;16.744;2022-09-12T08:28:34;15;73.5
67893;DHT22;54688;52.376;16.744;2022-09-12T08:31:38;15.1;72.5
67893;DHT22;54688;52.376;16.744;2022-09-12T08:34:41;15.1;72.7
67893;DHT22;54688;52.376;16.744;2022-09-12T08:37:43;15.1;72.8
67893;DHT22;54688;52.376;16.744;2022-09-12T08:40:47;15.2;73.3
67893;DHT22;54688;52.376;16.744;2022-09-12T08:43:57;15.2;73.3
67893;DHT22;54688;52.376;16.744;2022-09-12T08:47:24;15.3;72.8
67893;DHT22;54688;52.376;16.744;2022-09-12T08:50:30;15.4;72.7
67893;DHT22;54688;52.376;16.744;2022-09-12T08:53:33;15.6;71.2
67893;DHT22;54688;52.376;16.744;2022-09-12T08:56:36;15.7;70.3
67893;DHT22;54688;52.376;16.744;2022-09-12T08:59:40;15.8;70.2
67893;DHT22;54688;52.376;16.744;2022-09-12T09:02:51;15.7;68.3
67893;DHT22;54688;52.376;16.744;2022-09-12T09:06:06;15.8;68.2
67893;DHT22;54688;52.376;16.744;2022-09-12T09:09:14;15.7;67.8
67893;DHT22;54688;52.376;16.744;2022-09-12T09:12:28;15.7;68.6
67893;DHT22;54688;52.376;16.744;2022-09-12T09:15:40;15.8;68.3
67893;DHT22;54688;52.376;16.744;2022-09-12T09:18:49;15.8;67.2
67893;DHT22;54688;52.376;16.744;2022-09-12T09:21:53;16;68
67893;DHT22;54688;52.376;16.744;2022-09-12T09:25:01;16;67.6
67893;DHT22;54688;52.376;16.744;2022-09-12T09:28:11;16.1;68.2
67893;DHT22;54688;52.376;16.744;2022-09-12T09:31:17;16.3;66.7
67893;DHT22;54688;52.376;16.744;2022-09-12T09:34:22;16.4;67.4
67893;DHT22;54688;52.376;16.744;2022-09-12T09:37:26;16.4;66.2
67893;DHT22;54688;52.376;16.744;2022-09-12T09:40:40;16.4;66.6
67893;DHT22;54688;52.376;16.744;2022-09-12T09:43:49;16.4;66.5
67893;DHT22;54688;52.376;16.744;2022-09-12T09:46:53;16.4;67
67893;DHT22;54688;52.376;16.744;2022-09-12T09:49:59;16.5;65.8
67893;DHT22;54688;52.376;16.744;2022-09-12T09:53:00;16.5;65.6
67893;DHT22;54688;52.376;16.744;2022-09-12T09:56:06;16.5;65
67893;DHT22;54688;52.376;16.744;2022-09-12T09:59:15;16.5;64.9
67893;DHT22;54688;52.376;16.744;2022-09-12T10:02:19;16.6;65.2
67893;DHT22;54688;52.376;16.744;2022-09-12T10:05:22;16.8;64.2
67893;DHT22;54688;52.376;16.744;2022-09-12T10:08:25;16.9;64.6
67893;DHT22;54688;52.376;16.744;2022-09-12T10:11:29;17;63.7
67893;DHT22;54688;52.376;16.744;2022-09-12T10:14:35;17.1;63.3
67893;DHT22;54688;52.376;16.744;2022-09-12T10:17:40;17.1;62.3
67893;DHT22;54688;52.376;16.744;2022-09-12T10:20:44;17.2;61
67893;DHT22;54688;52.376;16.744;2022-09-12T10:23:47;17.1;61.7
67893;DHT22;54688;52.376;16.744;2022-09-12T10:26:54;17;60.6
67893;DHT22;54688;52.376;16.744;2022-09-12T10:29:59;17;61.8
67893;DHT22;54688;52.376;16.744;2022-09-12T10:33:03;16.9;62.6
67893;DHT22;54688;52.376;16.744;2022-09-12T10:36:09;17;63
67893;DHT22;54688;52.376;16.744;2022-09-12T10:39:14;17.1;60.3
67893;DHT22;54688;52.376;16.744;2022-09-12T10:42:40;17.1;60
67893;DHT22;54688;52.376;16.744;2022-09-12T10:45:45;17.2;61
67893;DHT22;54688;52.376;16.744;2022-09-12T10:48:47;17.2;61.7
67893;DHT22;54688;52.376;16.744;2022-09-12T10:51:51;17.2;61.6
67893;DHT22;54688;52.376;16.744;2022-09-12T10:54:54;17.2;60.4
67893;DHT22;54688;52.376;16.744;2022-09-12T10:58:00;17.2;60.1
67893;DHT22;54688;52.376;16.744;2022-09-12T11:01:17;17.2;60.8
67893;DHT22;54688;52.376;16.744;2022-09-12T11:04:28;17.3;57.9
67893;DHT22;54688;52.376;16.744;2022-09-12T11:07:42;17.5;58.8
67893;DHT22;54688;52.376;16.744;2022-09-12T11:10:49;17.4;56.9
67893;DHT22;54688;52.376;16.744;2022-09-12T11:13:59;17.4;57.1
67893;DHT22;54688;52.376;16.744;2022-09-12T11:17:15;17.5;56.2
67893;DHT22;54688;52.376;16.744;2022-09-12T11:20:31;17.7;56.7
67893;DHT22;54688;52.376;16.744;2022-09-12T11:23:44;18;55.7
67893;DHT22;54688;52.376;16.744;2022-09-12T11:27:00;18.1;52.7
67893;DHT22;54688;52.376;16.744;2022-09-12T11:30:12;18.1;52.8
67893;DHT22;54688;52.376;16.744;2022-09-12T11:33:23;18.1;54.1
67893;DHT22;54688;52.376;16.744;2022-09-12T11:36:32;18.2;55.6
67893;DHT22;54688;52.376;16.744;2022-09-12T11:39:40;18.4;55.1
67893;DHT22;54688;52.376;16.744;2022-09-12T11:42:46;18.4;54.7
67893;DHT22;54688;52.376;16.744;2022-09-12T11:45:52;18.4;52.7
67893;DHT22;54688;52.376;16.744;2022-09-12T11:48:56;18.5;52.8
67893;DHT22;54688;52.376;16.744;2022-09-12T11:52:02;18.6;53.2
67893;DHT22;54688;52.376;16.744;2022-09-12T11:55:10;18.6;54.3
67893;DHT22;54688;52.376;16.744;2022-09-12T11:58:19;18.6;52.7
67893;DHT22;54688;52.376;16.744;2022-09-12T12:01:27;18.7;53
67893;DHT22;54688;52.376;16.744;2022-09-12T12:04:38;18.8;52.1
67893;DHT22;54688;52.376;16.744;2022-09-12T12:07:50;18.9;52.9
67893;DHT22;54688;52.376;16.744;2022-09-12T12:10:54;18.8;50.4
67893;DHT22;54688;52.376;16.744;2022-09-12T12:14:00;18.8;49.1
67893;DHT22;54688;52.376;16.744;2022-09-12T12:17:10;18.7;50.4
67893;DHT22;54688;52.376;16.744;2022-09-12T12:20:14;18.6;50.5
67893;DHT22;54688;52.376;16.744;2022-09-12T12:23:22;18.5;52.2
67893;DHT22;54688;52.376;16.744;2022-09-12T12:26:39;18.6;50.9
67893;DHT22;54688;52.376;16.744;2022-09-12T12:29:45;18.7;51
67893;DHT22;54688;52.376;16.744;2022-09-12T12:32:48;19;50.2
67893;DHT22;54688;52.376;16.744;2022-09-12T12:36:00;19.2;48.2
67893;DHT22;54688;52.376;16.744;2022-09-12T12:39:55;19.5;48.6
67893;DHT22;54688;52.376;16.744;2022-09-12T12:43:00;19.6;47.7
67893;DHT22;54688;52.376;16.744;2022-09-12T12:46:05;19.8;46
67893;DHT22;54688;52.376;16.744;2022-09-12T12:49:10;19.9;46.5
67893;DHT22;54688;52.376;16.744;2022-09-12T12:52:21;20.1;47.6
67893;DHT22;54688;52.376;16.744;2022-09-12T12:55:25;20.4;47.8
67893;DHT22;54688;52.376;16.744;2022-09-12T12:58:34;20.7;44.4
67893;DHT22;54688;52.376;16.744;2022-09-12T13:01:37;20.8;43.9
67893;DHT22;54688;52.376;16.744;2022-09-12T13:04:46;21;45.1
67893;DHT22;54688;52.376;16.744;2022-09-12T13:07:51;21.2;46.2
67893;DHT22;54688;52.376;16.744;2022-09-12T13:10:57;21.4;44
67893;DHT22;54688;52.376;16.744;2022-09-12T13:14:02;21.5;43.2
67893;DHT22;54688;52.376;16.744;2022-09-12T13:17:05;21.3;42.9
67893;DHT22;54688;52.376;16.744;2022-09-12T13:20:17;21.2;43.5
67893;DHT22;54688;52.376;16.744;2022-09-12T13:23:24;21;44.9
67893;DHT22;54688;52.376;16.744;2022-09-12T13:26:32;20.8;44.7
67893;DHT22;54688;52.376;16.744;2022-09-12T13:29:35;20.5;44.9
67893;DHT22;54688;52.376;16.744;2022-09-12T13:32:37;20.2;47.1
67893;DHT22;54688;52.376;16.744;2022-09-12T13:35:42;20;48.5
67893;DHT22;54688;52.376;16.744;2022-09-12T13:38:56;19.8;50.1
67893;DHT22;54688;52.376;16.744;2022-09-12T13:42:41;19.5;49.6
67893;DHT22;54688;52.376;16.744;2022-09-12T13:45:47;19.4;50.9
67893;DHT22;54688;52.376;16.744;2022-09-12T13:48:49;19.3;50.4
67893;DHT22;54688;52.376;16.744;2022-09-12T13:51:55;19.2;51.1
67893;DHT22;54688;52.376;16.744;2022-09-12T13:55:04;19.1;50.8
67893;DHT22;54688;52.376;16.744;2022-09-12T13:58:14;19;51.3
67893;DHT22;54688;52.376;16.744;2022-09-12T14:01:18;19.1;51.4
67893;DHT22;54688;52.376;16.744;2022-09-12T14:04:22;19.1;51.1
67893;DHT22;54688;52.376;16.744;2022-09-12T14:07:26;19.2;50.7
67893;DHT22;54688;52.376;16.744;2022-09-12T14:10:29;19.3;50.4
67893;DHT22;54688;52.376;16.744;2022-09-12T14:13:33;19.3;50.8
67893;DHT22;54688;52.376;16.744;2022-09-12T14:16:36;19.3;51.7
67893;DHT22;54688;52.376;16.744;2022-09-12T14:19:40;19.4;52.6
67893;DHT22;54688;52.376;16.744;2022-09-12T14:22:42;19.4;51.5
67893;DHT22;54688;52.376;16.744;2022-09-12T14:25:45;19.5;51.1
67893;DHT22;54688;52.376;16.744;2022-09-12T14:28:47;19.5;51.6
67893;DHT22;54688;52.376;16.744;2022-09-12T14:32:12;19.5;50.8
67893;DHT22;54688;52.376;16.744;2022-09-12T14:35:21;19.5;50.6
67893;DHT22;54688;52.376;16.744;2022-09-12T14:38:33;19.4;50.7
67893;DHT22;54688;52.376;16.744;2022-09-12T14:41:37;19.3;50.1
67893;DHT22;54688;52.376;16.744;2022-09-12T14:44:43;19.1;51.6
67893;DHT22;54688;52.376;16.744;2022-09-12T14:47:55;19;51.2
67893;DHT22;54688;52.376;16.744;2022-09-12T14:50:59;18.9;52.4
67893;DHT22;54688;52.376;16.744;2022-09-12T14:54:01;18.8;53.6
67893;DHT22;54688;52.376;16.744;2022-09-12T14:57:04;18.7;53
67893;DHT22;54688;52.376;16.744;2022-09-12T15:00:17;18.6;53.4
67893;DHT22;54688;52.376;16.744;2022-09-12T15:03:23;18.4;54
67893;DHT22;54688;52.376;16.744;2022-09-12T15:06:28;18.3;54.9
67893;DHT22;54688;52.376;16.744;2022-09-12T15:09:31;18.2;55.3
67893;DHT22;54688;52.376;16.744;2022-09-12T15:12:33;18.1;56.1
67893;DHT22;54688;52.376;16.744;2022-09-12T15:15:35;17.9;57.6
67893;DHT22;54688;52.376;16.744;2022-09-12T15:18:39;17.7;58.7
67893;DHT22;54688;52.376;16.744;2022-09-12T15:21:42;17.6;59.3
67893;DHT22;54688;52.376;16.744;2022-09-12T15:24:44;17.7;59
67893;DHT22;54688;52.376;16.744;2022-09-12T15:27:46;17.8;58.5
67893;DHT22;54688;52.376;16.744;2022-09-12T15:30:51;18;58.2
67893;DHT22;54688;52.376;16.744;2022-09-12T15:33:55;18.1;57.6
67893;DHT22;54688;52.376;16.744;2022-09-12T15:39:59;18;58.4
67893;DHT22;54688;52.376;16.744;2022-09-12T15:43:02;17.9;59
67893;DHT22;54688;52.376;16.744;2022-09-12T15:46:04;17.8;59
67893;DHT22;54688;52.376;16.744;2022-09-12T15:49:07;17.7;59.9
67893;DHT22;54688;52.376;16.744;2022-09-12T15:52:10;17.6;60.1
67893;DHT22;54688;52.376;16.744;2022-09-12T15:55:16;17.5;60
67893;DHT22;54688;52.376;16.744;2022-09-12T15:58:20;17.5;59.5
67893;DHT22;54688;52.376;16.744;2022-09-12T16:01:23;17.5;60.5
67893;DHT22;54688;52.376;16.744;2022-09-12T16:04:27;17.4;60.9
67893;DHT22;54688;52.376;16.744;2022-09-12T16:07:30;17.4;60.8
67893;DHT22;54688;52.376;16.744;2022-09-12T16:10:33;17.4;61
67893;DHT22;54688;52.376;16.744;2022-09-12T16:13:36;17.3;61.1
67893;DHT22;54688;52.376;16.744;2022-09-12T16:16:38;17.3;60.9
67893;DHT22;54688;52.376;16.744;2022-09-12T16:19:41;17.2;60.8
67893;DHT22;54688;52.376;16.744;2022-09-12T16:22:43;17.2;62.4
67893;DHT22;54688;52.376;16.744;2022-09-12T16:25:54;17.1;61.5
67893;DHT22;54688;52.376;16.744;2022-09-12T16:28:57;17.1;62.7
67893;DHT22;54688;52.376;16.744;2022-09-12T16:31:59;16.9;63.3
67893;DHT22;54688;52.376;16.744;2022-09-12T16:35:02;16.8;63.5
67893;DHT22;54688;52.376;16.744;2022-09-12T16:38:06;16.8;63.7
67893;DHT22;54688;52.376;16.744;2022-09-12T16:41:09;16.7;65.1
67893;DHT22;54688;52.376;16.744;2022-09-12T16:44:12;16.7;65.4
67893;DHT22;54688;52.376;16.744;2022-09-12T16:47:14;16.6;65.6
67893;DHT22;54688;52.376;16.744;2022-09-12T16:50:17;16.6;65.3
67893;DHT22;54688;52.376;16.744;2022-09-12T16:53:19;16.5;66.6
67893;DHT22;54688;52.376;16.744;2022-09-12T16:56:21;16.4;67.2
67893;DHT22;54688;52.376;16.744;2022-09-12T16:59:23;16.3;67.6
67893;DHT22;54688;52.376;16.744;2022-09-12T17:02:25;16.2;67.2
67893;DHT22;54688;52.376;16.744;2022-09-12T17:05:28;16.1;67.7
67893;DHT22;54688;52.376;16.744;2022-09-12T17:08:31;16;68.8
67893;DHT22;54688;52.376;16.744;2022-09-12T17:11:35;15.9;68.7
67893;DHT22;54688;52.376;16.744;2022-09-12T17:14:39;15.8;69.3
67893;DHT22;54688;52.376;16.744;2022-09-12T17:17:41;15.7;69.5
67893;DHT22;54688;52.376;16.744;2022-09-12T17:20:42;15.5;70
67893;DHT22;54688;52.376;16.744;2022-09-12T17:23:44;15.4;70.9
67893;DHT22;54688;52.376;16.744;2022-09-12T17:26:47;15.3;71.5
67893;DHT22;54688;52.376;16.744;2022-09-12T17:29:48;15.1;71.6
67893;DHT22;54688;52.376;16.744;2022-09-12T17:32:51;15.1;72.2
67893;DHT22;54688;52.376;16.744;2022-09-12T17:35:53;14.9;72.5
67893;DHT22;54688;52.376;16.744;2022-09-12T17:38:56;14.9;73.2
67893;DHT22;54688;52.376;16.744;2022-09-12T17:41:58;14.8;73.1
67893;DHT22;54688;52.376;16.744;2022-09-12T17:45:00;14.7;73.3
67893;DHT22;54688;52.376;16.744;2022-09-12T17:48:02;14.7;73.2
67893;DHT22;54688;52.376;16.744;2022-09-12T17:51:06;14.5;73.1
67893;DHT22;54688;52.376;16.744;2022-09-12T17:54:09;14.5;73.7
67893;DHT22;54688;52.376;16.744;2022-09-12T17:57:13;14.3;74
67893;DHT22;54688;52.376;16.744;2022-09-12T18:00:15;14.3;74
67893;DHT22;54688;52.376;16.744;2022-09-12T18:03:19;14.2;74.5
67893;DHT22;54688;52.376;16.744;2022-09-12T18:06:23;14.2;75.4
67893;DHT22;54688;52.376;16.744;2022-09-12T18:09:25;14.1;75.4
67893;DHT22;54688;52.376;16.744;2022-09-12T18:12:28;14;75.7
67893;DHT22;54688;52.376;16.744;2022-09-12T18:15:31;13.9;75.8
67893;DHT22;54688;52.376;16.744;2022-09-12T18:18:34;13.8;76.2
67893;DHT22;54688;52.376;16.744;2022-09-12T18:21:38;13.8;76.2
67893;DHT22;54688;52.376;16.744;2022-09-12T18:24:41;13.7;76.7
67893;DHT22;54688;52.376;16.744;2022-09-12T18:27:43;13.6;76.9
67893;DHT22;54688;52.376;16.744;2022-09-12T18:30:45;13.6;77
67893;DHT22;54688;52.376;16.744;2022-09-12T18:33:47;13.6;76.9
67893;DHT22;54688;52.376;16.744;2022-09-12T18:36:50;13.5;77.2
67893;DHT22;54688;52.376;16.744;2022-09-12T18:39:52;13.4;78.1
67893;DHT22;54688;52.376;16.744;2022-09-12T18:42:53;13.3;77.6
67893;DHT22;54688;52.376;16.744;2022-09-12T18:45:55;13.3;77.3
67893;DHT22;54688;52.376;16.744;2022-09-12T18:48:58;13.2;78.2
67893;DHT22;54688;52.376;16.744;2022-09-12T18:52:00;13.2;78.2
67893;DHT22;54688;52.376;16.744;2022-09-12T18:55:02;13.1;78.8
67893;DHT22;54688;52.376;16.744;2022-09-12T18:58:05;13.1;78.1
67893;DHT22;54688;52.376;16.744;2022-09-12T19:01:09;13;77.8
67893;DHT22;54688;52.376;16.744;2022-09-12T19:04:11;13;78.5
67893;DHT22;54688;52.376;16.744;2022-09-12T19:07:16;12.9;77.8
67893;DHT22;54688;52.376;16.744;2022-09-12T19:10:18;12.8;77.9
67893;DHT22;54688;52.376;16.744;2022-09-12T19:13:20;12.8;78.6
67893;DHT22;54688;52.376;16.744;2022-09-12T19:16:23;12.7;78.7
67893;DHT22;54688;52.376;16.744;2022-09-12T19:19:26;12.6;78.2
67893;DHT22;54688;52.376;16.744;2022-09-12T19:22:28;12.6;78.4
67893;DHT22;54688;52.376;16.744;2022-09-12T19:25:31;12.5;78.2
67893;DHT22;54688;52.376;16.744;2022-09-12T19:28:33;12.5;78.4
67893;DHT22;54688;52.376;16.744;2022-09-12T19:31:35;12.4;78.7
67893;DHT22;54688;52.376;16.744;2022-09-12T19:34:37;12.4;78.5
67893;DHT22;54688;52.376;16.744;2022-09-12T19:37:39;12.3;78.5
67893;DHT22;54688;52.376;16.744;2022-09-12T19:40:41;12.2;78.9
67893;DHT22;54688;52.376;16.744;2022-09-12T19:43:43;12.2;79.1
67893;DHT22;54688;52.376;16.744;2022-09-12T19:46:45;12.2;79.2
67893;DHT22;54688;52.376;16.744;2022-09-12T19:49:46;12.1;80.4
67893;DHT22;54688;52.376;16.744;2022-09-12T19:52:48;12;79.5
67893;DHT22;54688;52.376;16.744;2022-09-12T19:55:50;12;79.5
67893;DHT22;54688;52.376;16.744;2022-09-12T19:58:52;12;79.6
67893;DHT22;54688;52.376;16.744;2022-09-12T20:01:55;11.9;80.1
67893;DHT22;54688;52.376;16.744;2022-09-12T20:04:57;11.9;80.6